KGUC

Gunnison-Crested Butte Regional Airport

Gunnison, Colorado, USA
METAR KGUC 161256Z AUTO 00000KT 10SM CLR M15/M17 A3000 RMK AO2 SLP229 T11501172 FZRANO
Observed Flight Rules
Dec-16 @ 12:56 UTC (2 hours ago) Visual Flight Rules
Wind Visibility Clouds
Calm 10 miles
  • Clear skies
Temperatures Readings
Current -15°C / 5°F
Dewpoint -17°C / 1°F
Humidity 85%
Altimeter 30" Hg
Pressure 1022.9 hPa
Elevation 2339
METAR KGUC 161256Z AUTO 00000KT 10SM CLR M15/M17 A3000 RMK AO2 SLP229 T11501172 FZRANO
Observed Flight Rules
Dec-16 @ 12:56 UTC
(2 hours ago)
VFR
Wind Visibility
Calm 10 miles
Clouds
  • Clear skies
Temperature Dewpoint
-15°C / 5°F -17°C / 1°F
Humidity Altimeter Pressure
85% 30" Hg 1022.9 hPa